world map with WAE marked

WAE - Airport

This information may not be accurate or current and is not valid for navigation or flight planning. No warranty of fitness for any purpose is made or implied.

flag of Saudi Arabia

Donate via PayPal

Additional information is available on the NEW Great Circle Mapper

Location
City:  Wadi al-Dawasir, Saudi Arabia
Name:Wadi al-Dawasir Airport
ICAO / IATA:OEWD / WAE

Details
Type:Airport (Aerodrome, Airfield)
Use:Public/Civil
Latitude:20°30'15"N (20.504167)
Longitude:45°11'56"E (45.198889)
Elevation:2062 ft (628 m)
Runways:1
Longest:10007 × 148 ft (3050 × 45 m)

Time
Timezone:UTC+3 (DST+5)
Local Time:

Weather
METAR:OEWD  130800Z 11012KT CAVOK 24/11 Q1021 NOSIG
TAF:OEWD  (expired)

Related Locations
Nearby:
Farthest:REA: 12259 mi / 19729 km
Reao, PF

Find:

   beyond  
but within

Other Information
Maps:
Sources:

  


 


Great Circle Mapper   Great Circle Mapper
Great Circle Mapper FAQ   Great Circle Mapper FAQ
  Karl's Home Page
KLSē   KLSē Home
   GC on Facebook
Airlines of the World   Airlines of the World
Donate via PayPal


Copyright © 2004-2018, Karl L. Swartz. All rights reserved.
All trademarks mentioned herein belong to their respective owners.

Please see credits for attribution and copyright information.

Karl Swartz <karl@kls2.com>
  Powered by FreeBSD
Valid HTML 4.01!
Labeled with ICRA
hCard Microformat
Geo Microformat